sensor_id;sensor_type;location;lat;lon;timestamp;P1;durP1;ratioP1;P2;durP2;ratioP2
40849;SDS011;26571;41.610;25.380;2022-11-09T00:00:53;16.05;;;13.75;;
40849;SDS011;26571;41.610;25.380;2022-11-09T00:03:18;18.88;;;13.15;;
40849;SDS011;26571;41.610;25.380;2022-11-09T00:05:53;16.45;;;13.88;;
40849;SDS011;26571;41.610;25.380;2022-11-09T00:08:22;18.83;;;15.20;;
40849;SDS011;26571;41.610;25.380;2022-11-09T00:10:48;22.17;;;14.48;;
40849;SDS011;26571;41.610;25.380;2022-11-09T00:13:13;18.08;;;14.02;;
40849;SDS011;26571;41.610;25.380;2022-11-09T00:15:38;26.00;;;15.50;;
40849;SDS011;26571;41.610;25.380;2022-11-09T00:18:04;19.83;;;13.43;;
40849;SDS011;26571;41.610;25.380;2022-11-09T00:20:29;18.35;;;14.02;;
40849;SDS011;26571;41.610;25.380;2022-11-09T00:22:55;20.38;;;14.85;;
40849;SDS011;26571;41.610;25.380;2022-11-09T00:25:21;16.23;;;13.05;;
40849;SDS011;26571;41.610;25.380;2022-11-09T00:27:46;23.60;;;13.93;;
40849;SDS011;26571;41.610;25.380;2022-11-09T00:30:12;17.33;;;13.43;;
40849;SDS011;26571;41.610;25.380;2022-11-09T00:32:37;16.13;;;11.85;;
40849;SDS011;26571;41.610;25.380;2022-11-09T00:35:03;17.08;;;12.88;;
40849;SDS011;26571;41.610;25.380;2022-11-09T00:37:29;18.10;;;13.25;;
40849;SDS011;26571;41.610;25.380;2022-11-09T00:39:55;19.83;;;14.23;;
40849;SDS011;26571;41.610;25.380;2022-11-09T00:42:20;15.55;;;13.75;;
40849;SDS011;26571;41.610;25.380;2022-11-09T00:44:45;19.48;;;13.10;;
40849;SDS011;26571;41.610;25.380;2022-11-09T00:47:11;15.07;;;12.50;;
40849;SDS011;26571;41.610;25.380;2022-11-09T00:49:36;18.02;;;14.00;;
40849;SDS011;26571;41.610;25.380;2022-11-09T00:52:02;17.77;;;13.43;;
40849;SDS011;26571;41.610;25.380;2022-11-09T00:54:27;19.80;;;13.30;;
40849;SDS011;26571;41.610;25.380;2022-11-09T00:56:52;16.30;;;11.75;;
40849;SDS011;26571;41.610;25.380;2022-11-09T00:59:18;18.30;;;13.15;;
40849;SDS011;26571;41.610;25.380;2022-11-09T01:01:43;20.05;;;14.20;;
40849;SDS011;26571;41.610;25.380;2022-11-09T01:04:09;18.35;;;13.45;;
40849;SDS011;26571;41.610;25.380;2022-11-09T01:06:34;16.40;;;13.70;;
40849;SDS011;26571;41.610;25.380;2022-11-09T01:08:59;20.95;;;12.98;;
40849;SDS011;26571;41.610;25.380;2022-11-09T01:11:25;16.33;;;11.38;;
40849;SDS011;26571;41.610;25.380;2022-11-09T01:13:50;14.90;;;12.95;;
40849;SDS011;26571;41.610;25.380;2022-11-09T01:16:17;15.40;;;13.07;;
40849;SDS011;26571;41.610;25.380;2022-11-09T01:18:44;15.30;;;12.52;;
40849;SDS011;26571;41.610;25.380;2022-11-09T01:21:11;16.17;;;13.10;;
40849;SDS011;26571;41.610;25.380;2022-11-09T01:23:38;15.48;;;13.90;;
40849;SDS011;26571;41.610;25.380;2022-11-09T01:26:05;21.92;;;13.88;;
40849;SDS011;26571;41.610;25.380;2022-11-09T01:28:33;22.42;;;15.27;;
40849;SDS011;26571;41.610;25.380;2022-11-09T01:31:02;24.80;;;14.70;;
40849;SDS011;26571;41.610;25.380;2022-11-09T01:33:35;17.85;;;14.88;;
40849;SDS011;26571;41.610;25.380;2022-11-09T01:36:05;18.73;;;13.45;;
40849;SDS011;26571;41.610;25.380;2022-11-09T01:38:32;18.08;;;13.18;;
40849;SDS011;26571;41.610;25.380;2022-11-09T01:40:57;15.80;;;13.48;;
40849;SDS011;26571;41.610;25.380;2022-11-09T01:43:23;16.48;;;12.00;;
40849;SDS011;26571;41.610;25.380;2022-11-09T01:45:54;15.95;;;13.48;;
40849;SDS011;26571;41.610;25.380;2022-11-09T01:48:30;15.60;;;12.10;;
40849;SDS011;26571;41.610;25.380;2022-11-09T01:51:13;14.48;;;12.20;;
40849;SDS011;26571;41.610;25.380;2022-11-09T01:53:44;15.95;;;12.57;;
40849;SDS011;26571;41.610;25.380;2022-11-09T01:56:12;20.15;;;13.52;;
40849;SDS011;26571;41.610;25.380;2022-11-09T01:58:50;16.48;;;13.00;;
40849;SDS011;26571;41.610;25.380;2022-11-09T02:01:21;19.95;;;13.73;;
40849;SDS011;26571;41.610;25.380;2022-11-09T02:03:50;21.75;;;12.70;;
40849;SDS011;26571;41.610;25.380;2022-11-09T02:06:28;14.73;;;12.45;;
40849;SDS011;26571;41.610;25.380;2022-11-09T02:08:58;20.92;;;13.32;;
40849;SDS011;26571;41.610;25.380;2022-11-09T02:11:28;18.80;;;14.18;;
40849;SDS011;26571;41.610;25.380;2022-11-09T02:13:55;13.63;;;11.40;;
40849;SDS011;26571;41.610;25.380;2022-11-09T02:16:22;15.95;;;13.95;;
40849;SDS011;26571;41.610;25.380;2022-11-09T02:18:55;16.33;;;12.95;;
40849;SDS011;26571;41.610;25.380;2022-11-09T02:21:22;16.73;;;12.95;;
40849;SDS011;26571;41.610;25.380;2022-11-09T02:23:50;15.63;;;13.93;;
40849;SDS011;26571;41.610;25.380;2022-11-09T02:26:18;16.73;;;13.18;;
40849;SDS011;26571;41.610;25.380;2022-11-09T02:28:49;19.80;;;15.43;;
40849;SDS011;26571;41.610;25.380;2022-11-09T02:31:16;17.63;;;12.82;;
40849;SDS011;26571;41.610;25.380;2022-11-09T02:33:44;18.40;;;13.10;;
40849;SDS011;26571;41.610;25.380;2022-11-09T02:36:18;16.48;;;13.13;;
40849;SDS011;26571;41.610;25.380;2022-11-09T02:38:44;12.82;;;11.43;;
40849;SDS011;26571;41.610;25.380;2022-11-09T02:41:09;13.25;;;11.77;;
40849;SDS011;26571;41.610;25.380;2022-11-09T02:43:37;21.40;;;13.05;;
40849;SDS011;26571;41.610;25.380;2022-11-09T02:46:03;16.08;;;11.80;;
40849;SDS011;26571;41.610;25.380;2022-11-09T02:48:30;15.40;;;12.30;;
40849;SDS011;26571;41.610;25.380;2022-11-09T02:50:55;14.45;;;12.95;;
40849;SDS011;26571;41.610;25.380;2022-11-09T02:53:20;13.00;;;11.60;;
40849;SDS011;26571;41.610;25.380;2022-11-09T02:55:46;13.73;;;11.02;;
40849;SDS011;26571;41.610;25.380;2022-11-09T02:58:11;18.65;;;13.38;;
40849;SDS011;26571;41.610;25.380;2022-11-09T03:00:37;14.85;;;11.32;;
40849;SDS011;26571;41.610;25.380;2022-11-09T03:03:03;17.42;;;12.23;;
40849;SDS011;26571;41.610;25.380;2022-11-09T03:05:29;15.85;;;13.13;;
40849;SDS011;26571;41.610;25.380;2022-11-09T03:07:55;16.30;;;13.75;;
40849;SDS011;26571;41.610;25.380;2022-11-09T03:10:21;13.38;;;11.20;;
40849;SDS011;26571;41.610;25.380;2022-11-09T03:12:46;15.23;;;13.00;;
40849;SDS011;26571;41.610;25.380;2022-11-09T03:15:12;15.55;;;12.43;;
40849;SDS011;26571;41.610;25.380;2022-11-09T03:17:37;14.20;;;11.75;;
40849;SDS011;26571;41.610;25.380;2022-11-09T03:20:03;14.85;;;12.77;;
40849;SDS011;26571;41.610;25.380;2022-11-09T03:22:29;16.70;;;13.43;;
40849;SDS011;26571;41.610;25.380;2022-11-09T03:24:55;14.40;;;11.32;;
40849;SDS011;26571;41.610;25.380;2022-11-09T03:27:20;14.32;;;11.98;;
40849;SDS011;26571;41.610;25.380;2022-11-09T03:29:45;15.00;;;12.27;;
40849;SDS011;26571;41.610;25.380;2022-11-09T03:32:11;14.55;;;12.38;;
40849;SDS011;26571;41.610;25.380;2022-11-09T03:34:36;15.43;;;13.02;;
40849;SDS011;26571;41.610;25.380;2022-11-09T03:37:02;13.32;;;11.10;;
40849;SDS011;26571;41.610;25.380;2022-11-09T03:39:27;14.70;;;12.10;;
40849;SDS011;26571;41.610;25.380;2022-11-09T03:41:53;15.60;;;12.05;;
40849;SDS011;26571;41.610;25.380;2022-11-09T03:44:18;13.27;;;11.88;;
40849;SDS011;26571;41.610;25.380;2022-11-09T03:46:44;16.00;;;12.10;;
40849;SDS011;26571;41.610;25.380;2022-11-09T03:49:10;16.23;;;12.48;;
40849;SDS011;26571;41.610;25.380;2022-11-09T03:51:35;19.75;;;13.57;;
40849;SDS011;26571;41.610;25.380;2022-11-09T03:54:01;14.73;;;12.77;;
40849;SDS011;26571;41.610;25.380;2022-11-09T03:56:26;17.23;;;11.02;;
40849;SDS011;26571;41.610;25.380;2022-11-09T03:58:52;17.20;;;13.13;;
40849;SDS011;26571;41.610;25.380;2022-11-09T04:01:17;15.82;;;11.80;;
40849;SDS011;26571;41.610;25.380;2022-11-09T04:03:43;15.18;;;13.57;;
40849;SDS011;26571;41.610;25.380;2022-11-09T04:06:08;16.25;;;13.32;;
40849;SDS011;26571;41.610;25.380;2022-11-09T04:08:33;14.90;;;12.32;;
40849;SDS011;26571;41.610;25.380;2022-11-09T04:10:59;14.73;;;12.00;;
40849;SDS011;26571;41.610;25.380;2022-11-09T04:13:24;12.13;;;10.90;;
40849;SDS011;26571;41.610;25.380;2022-11-09T04:15:50;13.25;;;10.90;;
40849;SDS011;26571;41.610;25.380;2022-11-09T04:18:15;11.40;;;10.35;;
40849;SDS011;26571;41.610;25.380;2022-11-09T04:20:41;13.40;;;11.77;;
40849;SDS011;26571;41.610;25.380;2022-11-09T04:23:08;12.35;;;11.13;;
40849;SDS011;26571;41.610;25.380;2022-11-09T04:25:36;11.57;;;10.57;;
40849;SDS011;26571;41.610;25.380;2022-11-09T04:28:03;10.93;;;9.85;;
40849;SDS011;26571;41.610;25.380;2022-11-09T04:30:30;9.93;;;8.98;;
40849;SDS011;26571;41.610;25.380;2022-11-09T04:32:58;12.05;;;10.85;;
40849;SDS011;26571;41.610;25.380;2022-11-09T04:35:24;12.93;;;11.73;;
40849;SDS011;26571;41.610;25.380;2022-11-09T04:37:51;11.27;;;9.48;;
40849;SDS011;26571;41.610;25.380;2022-11-09T04:40:18;16.33;;;11.35;;
40849;SDS011;26571;41.610;25.380;2022-11-09T04:42:44;12.68;;;10.25;;
40849;SDS011;26571;41.610;25.380;2022-11-09T04:45:09;13.05;;;11.02;;
40849;SDS011;26571;41.610;25.380;2022-11-09T04:47:35;12.25;;;11.02;;
40849;SDS011;26571;41.610;25.380;2022-11-09T04:50:00;11.25;;;10.05;;
40849;SDS011;26571;41.610;25.380;2022-11-09T04:52:25;14.60;;;11.70;;
40849;SDS011;26571;41.610;25.380;2022-11-09T04:54:51;13.77;;;12.30;;
40849;SDS011;26571;41.610;25.380;2022-11-09T04:57:16;12.52;;;11.05;;
40849;SDS011;26571;41.610;25.380;2022-11-09T04:59:41;15.30;;;13.52;;
40849;SDS011;26571;41.610;25.380;2022-11-09T05:02:07;17.88;;;12.35;;
40849;SDS011;26571;41.610;25.380;2022-11-09T05:04:32;13.95;;;12.45;;
40849;SDS011;26571;41.610;25.380;2022-11-09T05:06:58;15.82;;;13.23;;
40849;SDS011;26571;41.610;25.380;2022-11-09T05:09:23;17.70;;;11.68;;
40849;SDS011;26571;41.610;25.380;2022-11-09T05:11:50;17.55;;;12.38;;
40849;SDS011;26571;41.610;25.380;2022-11-09T05:14:15;14.38;;;10.82;;
40849;SDS011;26571;41.610;25.380;2022-11-09T05:16:41;17.20;;;12.75;;
40849;SDS011;26571;41.610;25.380;2022-11-09T05:19:06;14.60;;;12.07;;
40849;SDS011;26571;41.610;25.380;2022-11-09T05:21:32;14.02;;;11.65;;
40849;SDS011;26571;41.610;25.380;2022-11-09T05:23:57;15.50;;;10.38;;
40849;SDS011;26571;41.610;25.380;2022-11-09T05:26:23;14.43;;;11.82;;
40849;SDS011;26571;41.610;25.380;2022-11-09T05:28:53;12.82;;;10.90;;
40849;SDS011;26571;41.610;25.380;2022-11-09T05:31:19;14.23;;;12.75;;
40849;SDS011;26571;41.610;25.380;2022-11-09T05:33:46;15.48;;;12.35;;
40849;SDS011;26571;41.610;25.380;2022-11-09T05:36:12;24.52;;;15.50;;
40849;SDS011;26571;41.610;25.380;2022-11-09T05:38:38;28.17;;;17.88;;
40849;SDS011;26571;41.610;25.380;2022-11-09T05:41:03;18.73;;;13.07;;
40849;SDS011;26571;41.610;25.380;2022-11-09T05:43:28;26.27;;;16.38;;
40849;SDS011;26571;41.610;25.380;2022-11-09T05:45:54;19.95;;;14.52;;
40849;SDS011;26571;41.610;25.380;2022-11-09T05:48:19;15.20;;;12.82;;
40849;SDS011;26571;41.610;25.380;2022-11-09T05:50:44;17.10;;;13.43;;
40849;SDS011;26571;41.610;25.380;2022-11-09T05:53:10;30.52;;;18.20;;
40849;SDS011;26571;41.610;25.380;2022-11-09T05:55:36;16.33;;;13.18;;
40849;SDS011;26571;41.610;25.380;2022-11-09T05:58:02;35.83;;;19.20;;
40849;SDS011;26571;41.610;25.380;2022-11-09T06:00:29;20.95;;;14.90;;
40849;SDS011;26571;41.610;25.380;2022-11-09T06:03:04;17.63;;;12.95;;
40849;SDS011;26571;41.610;25.380;2022-11-09T06:05:31;10.60;;;9.50;;
40849;SDS011;26571;41.610;25.380;2022-11-09T06:08:08;13.75;;;10.65;;
40849;SDS011;26571;41.610;25.380;2022-11-09T06:10:38;11.05;;;9.73;;
40849;SDS011;26571;41.610;25.380;2022-11-09T06:13:04;10.70;;;9.47;;
40849;SDS011;26571;41.610;25.380;2022-11-09T06:15:30;18.80;;;10.00;;
40849;SDS011;26571;41.610;25.380;2022-11-09T06:17:55;18.73;;;11.25;;
40849;SDS011;26571;41.610;25.380;2022-11-09T06:20:22;13.70;;;11.60;;
40849;SDS011;26571;41.610;25.380;2022-11-09T06:22:52;14.15;;;10.70;;
40849;SDS011;26571;41.610;25.380;2022-11-09T06:25:21;13.57;;;10.40;;
40849;SDS011;26571;41.610;25.380;2022-11-09T06:27:47;13.43;;;11.02;;
40849;SDS011;26571;41.610;25.380;2022-11-09T06:30:13;16.17;;;12.02;;
40849;SDS011;26571;41.610;25.380;2022-11-09T06:32:39;16.17;;;11.85;;
40849;SDS011;26571;41.610;25.380;2022-11-09T06:35:05;20.05;;;12.20;;
40849;SDS011;26571;41.610;25.380;2022-11-09T06:37:30;14.73;;;11.60;;
40849;SDS011;26571;41.610;25.380;2022-11-09T06:39:56;12.20;;;10.93;;
40849;SDS011;26571;41.610;25.380;2022-11-09T06:42:21;12.40;;;10.52;;
40849;SDS011;26571;41.610;25.380;2022-11-09T06:44:47;13.27;;;11.38;;
40849;SDS011;26571;41.610;25.380;2022-11-09T06:47:12;14.90;;;10.48;;
40849;SDS011;26571;41.610;25.380;2022-11-09T06:49:38;16.52;;;10.95;;
40849;SDS011;26571;41.610;25.380;2022-11-09T06:52:03;15.88;;;10.73;;
40849;SDS011;26571;41.610;25.380;2022-11-09T06:54:28;19.25;;;12.00;;
40849;SDS011;26571;41.610;25.380;2022-11-09T06:56:54;13.57;;;12.25;;
40849;SDS011;26571;41.610;25.380;2022-11-09T06:59:20;14.50;;;11.77;;
40849;SDS011;26571;41.610;25.380;2022-11-09T07:01:45;14.48;;;11.32;;
40849;SDS011;26571;41.610;25.380;2022-11-09T07:04:11;16.02;;;10.82;;
40849;SDS011;26571;41.610;25.380;2022-11-09T07:06:38;15.32;;;11.93;;
40849;SDS011;26571;41.610;25.380;2022-11-09T07:09:04;10.70;;;9.63;;
40849;SDS011;26571;41.610;25.380;2022-11-09T07:11:30;15.32;;;10.20;;
40849;SDS011;26571;41.610;25.380;2022-11-09T07:13:55;12.65;;;11.38;;
40849;SDS011;26571;41.610;25.380;2022-11-09T07:16:21;15.70;;;10.88;;
40849;SDS011;26571;41.610;25.380;2022-11-09T07:18:46;14.85;;;12.82;;
40849;SDS011;26571;41.610;25.380;2022-11-09T07:21:12;13.55;;;11.20;;
40849;SDS011;26571;41.610;25.380;2022-11-09T07:23:37;13.23;;;11.68;;
40849;SDS011;26571;41.610;25.380;2022-11-09T07:26:03;19.20;;;12.13;;
40849;SDS011;26571;41.610;25.380;2022-11-09T07:28:29;13.82;;;11.68;;
40849;SDS011;26571;41.610;25.380;2022-11-09T07:30:56;11.40;;;10.20;;
40849;SDS011;26571;41.610;25.380;2022-11-09T07:33:22;21.55;;;12.18;;
40849;SDS011;26571;41.610;25.380;2022-11-09T07:35:49;17.85;;;12.88;;
40849;SDS011;26571;41.610;25.380;2022-11-09T07:38:14;18.73;;;12.25;;
40849;SDS011;26571;41.610;25.380;2022-11-09T07:40:40;15.43;;;13.13;;
40849;SDS011;26571;41.610;25.380;2022-11-09T07:43:06;18.95;;;12.48;;
40849;SDS011;26571;41.610;25.380;2022-11-09T07:45:32;19.17;;;13.02;;
40849;SDS011;26571;41.610;25.380;2022-11-09T07:48:00;16.60;;;12.48;;
40849;SDS011;26571;41.610;25.380;2022-11-09T07:50:27;24.70;;;18.20;;
40849;SDS011;26571;41.610;25.380;2022-11-09T07:52:54;25.95;;;16.30;;
40849;SDS011;26571;41.610;25.380;2022-11-09T07:55:23;23.33;;;16.95;;
40849;SDS011;26571;41.610;25.380;2022-11-09T07:57:56;20.55;;;16.80;;
40849;SDS011;26571;41.610;25.380;2022-11-09T08:00:40;30.13;;;17.40;;
40849;SDS011;26571;41.610;25.380;2022-11-09T08:05:33;16.80;;;14.70;;
40849;SDS011;26571;41.610;25.380;2022-11-09T08:08:00;19.75;;;15.35;;
40849;SDS011;26571;41.610;25.380;2022-11-09T08:10:27;17.27;;;13.73;;
40849;SDS011;26571;41.610;25.380;2022-11-09T08:12:54;21.98;;;14.80;;
40849;SDS011;26571;41.610;25.380;2022-11-09T08:15:24;14.70;;;13.10;;
40849;SDS011;26571;41.610;25.380;2022-11-09T08:17:51;17.23;;;13.87;;
40849;SDS011;26571;41.610;25.380;2022-11-09T08:20:16;16.52;;;13.43;;
40849;SDS011;26571;41.610;25.380;2022-11-09T08:22:43;14.27;;;12.05;;
40849;SDS011;26571;41.610;25.380;2022-11-09T08:25:09;18.13;;;12.30;;
40849;SDS011;26571;41.610;25.380;2022-11-09T08:27:35;16.67;;;12.23;;
40849;SDS011;26571;41.610;25.380;2022-11-09T08:30:09;16.20;;;13.55;;
40849;SDS011;26571;41.610;25.380;2022-11-09T08:32:36;14.77;;;12.23;;
40849;SDS011;26571;41.610;25.380;2022-11-09T08:35:02;14.25;;;12.18;;
40849;SDS011;26571;41.610;25.380;2022-11-09T08:37:28;13.45;;;12.05;;
40849;SDS011;26571;41.610;25.380;2022-11-09T08:39:53;12.73;;;10.90;;
40849;SDS011;26571;41.610;25.380;2022-11-09T08:42:19;11.20;;;10.07;;
40849;SDS011;26571;41.610;25.380;2022-11-09T08:44:45;14.13;;;10.80;;
40849;SDS011;26571;41.610;25.380;2022-11-09T08:47:10;13.45;;;10.77;;
40849;SDS011;26571;41.610;25.380;2022-11-09T08:49:35;16.45;;;9.90;;
40849;SDS011;26571;41.610;25.380;2022-11-09T08:52:01;10.70;;;9.18;;
40849;SDS011;26571;41.610;25.380;2022-11-09T08:54:26;14.52;;;10.10;;
40849;SDS011;26571;41.610;25.380;2022-11-09T08:56:54;12.75;;;9.80;;
40849;SDS011;26571;41.610;25.380;2022-11-09T08:59:21;13.15;;;9.50;;
40849;SDS011;26571;41.610;25.380;2022-11-09T09:01:47;11.43;;;9.45;;
40849;SDS011;26571;41.610;25.380;2022-11-09T09:04:12;10.50;;;8.10;;
40849;SDS011;26571;41.610;25.380;2022-11-09T09:06:37;16.48;;;11.82;;
40849;SDS011;26571;41.610;25.380;2022-11-09T09:09:03;14.77;;;10.13;;
40849;SDS011;26571;41.610;25.380;2022-11-09T09:11:28;17.30;;;11.05;;
40849;SDS011;26571;41.610;25.380;2022-11-09T09:13:54;14.45;;;10.52;;
40849;SDS011;26571;41.610;25.380;2022-11-09T09:16:19;11.63;;;9.18;;
40849;SDS011;26571;41.610;25.380;2022-11-09T09:18:46;17.17;;;10.50;;
40849;SDS011;26571;41.610;25.380;2022-11-09T09:21:12;12.18;;;9.80;;
40849;SDS011;26571;41.610;25.380;2022-11-09T09:23:37;14.80;;;10.57;;
40849;SDS011;26571;41.610;25.380;2022-11-09T09:26:03;15.52;;;11.57;;
40849;SDS011;26571;41.610;25.380;2022-11-09T09:28:28;14.57;;;9.85;;
40849;SDS011;26571;41.610;25.380;2022-11-09T09:30:56;18.10;;;13.40;;
40849;SDS011;26571;41.610;25.380;2022-11-09T09:33:23;12.15;;;10.93;;
40849;SDS011;26571;41.610;25.380;2022-11-09T09:35:49;14.55;;;11.27;;
40849;SDS011;26571;41.610;25.380;2022-11-09T09:38:15;15.27;;;10.88;;
40849;SDS011;26571;41.610;25.380;2022-11-09T09:40:42;17.35;;;12.02;;
40849;SDS011;26571;41.610;25.380;2022-11-09T09:43:42;14.45;;;10.55;;
40849;SDS011;26571;41.610;25.380;2022-11-09T09:46:32;14.73;;;10.45;;
40849;SDS011;26571;41.610;25.380;2022-11-09T09:49:00;14.85;;;11.88;;
40849;SDS011;26571;41.610;25.380;2022-11-09T09:54:06;11.55;;;9.45;;
40849;SDS011;26571;41.610;25.380;2022-11-09T09:56:45;12.45;;;10.20;;
40849;SDS011;26571;41.610;25.380;2022-11-09T09:59:24;12.10;;;10.90;;
40849;SDS011;26571;41.610;25.380;2022-11-09T10:01:57;13.35;;;9.35;;
40849;SDS011;26571;41.610;25.380;2022-11-09T10:04:26;13.68;;;8.98;;
40849;SDS011;26571;41.610;25.380;2022-11-09T10:09:52;15.23;;;11.30;;
40849;SDS011;26571;41.610;25.380;2022-11-09T10:14:51;36.55;;;17.88;;
40849;SDS011;26571;41.610;25.380;2022-11-09T10:25:26;13.15;;;9.95;;
40849;SDS011;26571;41.610;25.380;2022-11-09T10:27:54;20.25;;;10.40;;
40849;SDS011;26571;41.610;25.380;2022-11-09T10:30:22;19.95;;;9.15;;
40849;SDS011;26571;41.610;25.380;2022-11-09T10:32:56;44.63;;;24.05;;
40849;SDS011;26571;41.610;25.380;2022-11-09T10:35:28;33.72;;;16.85;;
40849;SDS011;26571;41.610;25.380;2022-11-09T10:37:58;15.57;;;8.93;;
40849;SDS011;26571;41.610;25.380;2022-11-09T10:40:38;13.23;;;9.93;;
40849;SDS011;26571;41.610;25.380;2022-11-09T10:43:10;12.23;;;9.23;;
40849;SDS011;26571;41.610;25.380;2022-11-09T10:45:38;9.70;;;7.82;;
40849;SDS011;26571;41.610;25.380;2022-11-09T10:48:06;10.57;;;8.40;;
40849;SDS011;26571;41.610;25.380;2022-11-09T10:50:51;10.48;;;8.35;;
40849;SDS011;26571;41.610;25.380;2022-11-09T11:03:55;10.63;;;8.75;;
40849;SDS011;26571;41.610;25.380;2022-11-09T11:08:47;13.50;;;9.75;;
40849;SDS011;26571;41.610;25.380;2022-11-09T11:13:52;10.90;;;9.43;;
40849;SDS011;26571;41.610;25.380;2022-11-09T11:16:39;9.52;;;7.70;;
40849;SDS011;26571;41.610;25.380;2022-11-09T11:19:24;15.55;;;9.60;;
40849;SDS011;26571;41.610;25.380;2022-11-09T11:24:40;10.23;;;9.30;;
40849;SDS011;26571;41.610;25.380;2022-11-09T11:27:18;10.50;;;8.43;;
40849;SDS011;26571;41.610;25.380;2022-11-09T11:29:51;9.18;;;8.15;;
40849;SDS011;26571;41.610;25.380;2022-11-09T11:32:24;13.55;;;8.68;;
40849;SDS011;26571;41.610;25.380;2022-11-09T11:34:50;13.43;;;9.25;;
40849;SDS011;26571;41.610;25.380;2022-11-09T11:39:49;13.07;;;9.25;;
40849;SDS011;26571;41.610;25.380;2022-11-09T11:46:00;9.20;;;7.88;;
40849;SDS011;26571;41.610;25.380;2022-11-09T11:51:33;11.43;;;9.13;;
40849;SDS011;26571;41.610;25.380;2022-11-09T11:57:02;10.02;;;8.60;;
40849;SDS011;26571;41.610;25.380;2022-11-09T12:08:54;8.80;;;7.38;;
40849;SDS011;26571;41.610;25.380;2022-11-09T12:16:55;9.10;;;7.00;;
40849;SDS011;26571;41.610;25.380;2022-11-09T12:19:35;11.70;;;7.90;;
40849;SDS011;26571;41.610;25.380;2022-11-09T12:24:36;11.82;;;9.07;;
40849;SDS011;26571;41.610;25.380;2022-11-09T12:30:11;10.18;;;8.82;;
40849;SDS011;26571;41.610;25.380;2022-11-09T12:32:43;18.38;;;9.63;;
40849;SDS011;26571;41.610;25.380;2022-11-09T12:35:20;11.43;;;10.25;;
40849;SDS011;26571;41.610;25.380;2022-11-09T12:40:36;12.15;;;10.02;;
40849;SDS011;26571;41.610;25.380;2022-11-09T12:43:15;11.45;;;10.30;;
40849;SDS011;26571;41.610;25.380;2022-11-09T12:45:50;8.55;;;7.70;;
40849;SDS011;26571;41.610;25.380;2022-11-09T12:48:22;12.00;;;8.70;;
40849;SDS011;26571;41.610;25.380;2022-11-09T12:50:50;13.90;;;11.60;;
40849;SDS011;26571;41.610;25.380;2022-11-09T12:53:16;10.43;;;8.10;;
40849;SDS011;26571;41.610;25.380;2022-11-09T12:58:33;10.15;;;8.93;;
40849;SDS011;26571;41.610;25.380;2022-11-09T13:01:01;12.77;;;11.50;;
40849;SDS011;26571;41.610;25.380;2022-11-09T13:03:34;16.25;;;12.75;;
40849;SDS011;26571;41.610;25.380;2022-11-09T13:08:36;13.07;;;9.60;;
40849;SDS011;26571;41.610;25.380;2022-11-09T13:22:00;14.25;;;12.15;;
40849;SDS011;26571;41.610;25.380;2022-11-09T13:26:58;11.93;;;10.65;;
40849;SDS011;26571;41.610;25.380;2022-11-09T13:34:38;13.05;;;11.75;;
40849;SDS011;26571;41.610;25.380;2022-11-09T13:45:50;9.65;;;8.70;;
40849;SDS011;26571;41.610;25.380;2022-11-09T13:58:50;20.40;;;12.50;;
40849;SDS011;26571;41.610;25.380;2022-11-09T14:01:31;12.70;;;11.40;;
40849;SDS011;26571;41.610;25.380;2022-11-09T14:04:34;16.55;;;11.30;;
40849;SDS011;26571;41.610;25.380;2022-11-09T14:09:48;13.50;;;11.98;;
40849;SDS011;26571;41.610;25.380;2022-11-09T14:15:11;13.63;;;10.77;;
40849;SDS011;26571;41.610;25.380;2022-11-09T14:17:43;13.40;;;11.93;;
40849;SDS011;26571;41.610;25.380;2022-11-09T14:20:26;15.98;;;12.38;;
40849;SDS011;26571;41.610;25.380;2022-11-09T14:23:11;19.13;;;14.45;;
40849;SDS011;26571;41.610;25.380;2022-11-09T14:25:44;23.25;;;16.83;;
40849;SDS011;26571;41.610;25.380;2022-11-09T14:30:45;16.02;;;14.32;;
40849;SDS011;26571;41.610;25.380;2022-11-09T14:33:29;16.30;;;12.52;;
40849;SDS011;26571;41.610;25.380;2022-11-09T14:35:58;22.92;;;14.15;;
40849;SDS011;26571;41.610;25.380;2022-11-09T14:38:27;16.88;;;12.52;;
40849;SDS011;26571;41.610;25.380;2022-11-09T14:40:56;15.38;;;12.65;;
40849;SDS011;26571;41.610;25.380;2022-11-09T14:43:35;15.57;;;13.98;;
40849;SDS011;26571;41.610;25.380;2022-11-09T14:46:05;20.80;;;14.45;;
40849;SDS011;26571;41.610;25.380;2022-11-09T14:48:38;21.50;;;13.07;;
40849;SDS011;26571;41.610;25.380;2022-11-09T14:51:04;20.55;;;14.55;;
40849;SDS011;26571;41.610;25.380;2022-11-09T14:53:36;19.50;;;14.45;;
40849;SDS011;26571;41.610;25.380;2022-11-09T14:56:05;15.63;;;13.93;;
40849;SDS011;26571;41.610;25.380;2022-11-09T14:58:35;18.80;;;15.13;;
40849;SDS011;26571;41.610;25.380;2022-11-09T15:03:42;21.95;;;17.05;;
40849;SDS011;26571;41.610;25.380;2022-11-09T15:08:47;23.05;;;19.15;;
40849;SDS011;26571;41.610;25.380;2022-11-09T15:11:18;26.92;;;19.23;;
40849;SDS011;26571;41.610;25.380;2022-11-09T15:13:45;27.75;;;18.83;;
40849;SDS011;26571;41.610;25.380;2022-11-09T15:16:18;26.85;;;19.48;;
40849;SDS011;26571;41.610;25.380;2022-11-09T15:18:46;27.65;;;20.00;;
40849;SDS011;26571;41.610;25.380;2022-11-09T15:21:17;38.70;;;22.33;;
40849;SDS011;26571;41.610;25.380;2022-11-09T15:26:39;30.30;;;20.38;;
40849;SDS011;26571;41.610;25.380;2022-11-09T15:29:28;30.27;;;22.60;;
40849;SDS011;26571;41.610;25.380;2022-11-09T15:31:59;30.88;;;21.60;;
40849;SDS011;26571;41.610;25.380;2022-11-09T15:34:26;30.05;;;22.38;;
40849;SDS011;26571;41.610;25.380;2022-11-09T15:36:59;32.72;;;23.42;;
40849;SDS011;26571;41.610;25.380;2022-11-09T15:39:25;39.95;;;28.77;;
40849;SDS011;26571;41.610;25.380;2022-11-09T15:41:50;37.88;;;24.08;;
40849;SDS011;26571;41.610;25.380;2022-11-09T15:44:16;40.35;;;27.23;;
40849;SDS011;26571;41.610;25.380;2022-11-09T15:46:48;41.13;;;28.88;;
40849;SDS011;26571;41.610;25.380;2022-11-09T15:49:20;40.50;;;27.75;;
40849;SDS011;26571;41.610;25.380;2022-11-09T15:51:48;44.17;;;32.28;;
40849;SDS011;26571;41.610;25.380;2022-11-09T15:54:14;59.10;;;37.22;;
40849;SDS011;26571;41.610;25.380;2022-11-09T15:56:40;49.40;;;31.08;;
40849;SDS011;26571;41.610;25.380;2022-11-09T15:59:06;45.28;;;31.38;;
40849;SDS011;26571;41.610;25.380;2022-11-09T16:01:38;46.47;;;31.23;;
40849;SDS011;26571;41.610;25.380;2022-11-09T16:04:04;47.17;;;30.75;;
40849;SDS011;26571;41.610;25.380;2022-11-09T16:06:29;46.15;;;29.85;;
40849;SDS011;26571;41.610;25.380;2022-11-09T16:08:55;47.83;;;30.95;;
40849;SDS011;26571;41.610;25.380;2022-11-09T16:11:20;38.90;;;27.15;;
40849;SDS011;26571;41.610;25.380;2022-11-09T16:13:45;35.92;;;26.95;;
40849;SDS011;26571;41.610;25.380;2022-11-09T16:16:11;40.35;;;27.67;;
40849;SDS011;26571;41.610;25.380;2022-11-09T16:18:38;40.72;;;26.45;;
40849;SDS011;26571;41.610;25.380;2022-11-09T16:21:07;35.13;;;25.42;;
40849;SDS011;26571;41.610;25.380;2022-11-09T16:23:37;31.92;;;23.13;;
40849;SDS011;26571;41.610;25.380;2022-11-09T16:26:03;35.60;;;22.67;;
40849;SDS011;26571;41.610;25.380;2022-11-09T16:28:32;32.40;;;23.77;;